Flight Track Log - Related Links

Times and Time Zones

All times are in EDT time to prevent confusion due to time zone crossing. See the SWA554 flight status page for this flight to view local times or setup timezone preferences in your user account.

Time Position Orientation Groundspeed Altitude Reporting Facility
EDT Latitude Longitude Course Direction KTS MPH feet Rate Location/Type
Sun 10:42:40 AM 33.4333 -111.9833 90° East 192 221 2,000  Level Phoenix TRACON
Sun 10:43:52 AM 33.4333 -111.8833 90° East 231 266 4,700 2,000 Climbing Phoenix TRACON
Sun 10:44:16 AM 33.4378 -111.8683 70° East 240 276 5,200 2,400 Climbing Albuquerque Center
Sun 10:45:17 AM 33.4769 -111.7869 60° Northeast 284 327 8,100 2,585 Climbing Albuquerque Center
Sun 10:46:19 AM 33.5200 -111.7042 58° Northeast 295 339 10,500 2,293 Climbing Albuquerque Center
Sun 10:47:20 AM 33.5633 -111.6025 63° Northeast 345 397 12,800 2,341 Climbing Albuquerque Center
Sun 10:48:22 AM 33.6142 -111.4694 65° Northeast 372 428 15,300 2,341 Climbing Albuquerque Center
Sun 10:49:23 AM 33.6567 -111.3531 66° East 385 443 17,600 2,146 Climbing Albuquerque Center
Sun 10:50:25 AM 33.7019 -111.2314 66° East 399 459 19,700 1,805 Climbing Albuquerque Center
Sun 10:51:26 AM 33.7464 -111.1044 67° East 414 476 21,300 1,659 Climbing Albuquerque Center
Sun 10:52:28 AM 33.7933 -110.9717 67° East 430 495 23,100 1,512 Climbing Albuquerque Center
Sun 10:53:29 AM 33.8425 -110.8342 67° East 443 510 24,400 1,415 Climbing Albuquerque Center
Sun 10:54:31 AM 33.8908 -110.6933 68° East 454 522 26,000 1,610 Climbing Albuquerque Center
Sun 10:55:32 AM 33.9511 -110.5217 67° East 463 533 27,700 1,366 Climbing Albuquerque Center
Sun 10:56:34 AM 34.0011 -110.3831 66° East 470 541 28,800 1,171 Climbing Albuquerque Center
Sun 10:57:35 AM 34.0533 -110.2336 67° East 481 554 30,100 1,073 Climbing Albuquerque Center
Sun 10:58:37 AM 34.1086 -110.0739 67° East 479 551 31,000 1,258 Climbing Albuquerque Center
Sun 10:59:39 AM 34.1647 -109.9083 68° East 479 551 32,700 1,171 Climbing Albuquerque Center
Sun 11:00:40 AM 34.2117 -109.7714 67° East 469 540 33,400 829 Climbing Albuquerque Center
Sun 11:01:42 AM 34.2614 -109.6303 67° East 472 543 34,400 774 Climbing Albuquerque Center
Sun 11:02:44 AM 34.3164 -109.4658 68° East 474 545 35,000 293 Climbing Albuquerque Center
Sun 11:03:45 AM 34.3642 -109.3228 68° East 476 548 35,000  Level Albuquerque Center
Sun 11:04:47 AM 34.4208 -109.1586 67° East 475 547 35,000  Level Albuquerque Center
Sun 11:05:49 AM 34.4625 -109.0117 71° East 478 550 35,000  Level Albuquerque Center
Sun 11:06:51 AM 34.5094 -108.8400 72° East 481 554 35,000  Level Albuquerque Center
Sun 11:07:52 AM 34.5494 -108.6936 72° East 480 552 35,000  Level Albuquerque Center
Sun 11:08:54 AM 34.5900 -108.5450 72° East 482 555 35,000  Level Albuquerque Center
Sun 11:09:56 AM 34.6350 -108.3803 72° East 481 554 35,000  Level Albuquerque Center
Sun 11:10:58 AM 34.6764 -108.2250 72° East 483 556 35,000  Level Albuquerque Center
Sun 11:12:00 AM 34.7178 -108.0697 72° East 482 555 35,000  Level Albuquerque Center
Sun 11:13:01 AM 34.7592 -107.9156 72° East 482 555 35,000  Level Albuquerque Center
Sun 11:14:03 AM 34.8011 -107.7603 72° East 483 556 35,000  Level Albuquerque Center
Sun 11:15:05 AM 34.8508 -107.5736 72° East 483 556 35,000  Level Albuquerque Center
Sun 11:16:07 AM 34.8908 -107.4164 73° East 486 559 35,000  Level Albuquerque Center
Sun 11:17:09 AM 34.9311 -107.2594 73° East 486 559 35,000  Level Albuquerque Center
Sun 11:18:11 AM 34.9792 -107.0808 72° East 492 566 35,000  Level Albuquerque Center
Sun 11:19:13 AM 35.0161 -106.9300 73° East 488 562 35,000  Level Albuquerque Center
Sun 11:20:15 AM 35.0644 -106.7594 71° East 479 551 35,000  Level Albuquerque Center
Sun 11:21:17 AM 35.1206 -106.6158 64° Northeast 485 558 35,000  Level Albuquerque Center
Sun 11:22:19 AM 35.1736 -106.4719 66° East 491 565 35,000  Level Albuquerque Center
Sun 11:23:21 AM 35.2292 -106.3225 65° Northeast 487 560 35,000  Level Albuquerque Center
Sun 11:24:23 AM 35.2919 -106.1500 66° East 478 550 35,000  Level Albuquerque Center
Sun 11:25:25 AM 35.3461 -105.9978 66° East 483 556 35,000  Level Albuquerque Center
Sun 11:26:26 AM 35.4036 -105.8450 65° Northeast 488 562 35,000  Level Albuquerque Center
Sun 11:27:28 AM 35.4592 -105.6928 66° East 487 560 35,000  Level Albuquerque Center
Sun 11:28:30 AM 35.5156 -105.5403 66° East 485 558 35,000  Level Albuquerque Center
Sun 11:29:32 AM 35.5744 -105.3650 68° East 475 547 35,000  Level Albuquerque Center
Sun 11:30:34 AM 35.6297 -105.2111 66° East 481 554 35,000  Level Albuquerque Center
Sun 11:31:36 AM 35.6950 -105.0650 61° Northeast 482 555 35,000  Level Albuquerque Center
Sun 11:32:38 AM 35.7700 -104.9286 56° Northeast 476 548 35,000  Level Albuquerque Center
Sun 11:33:40 AM 35.8436 -104.7919 56° Northeast 475 547 35,000  Level Albuquerque Center
Sun 11:34:42 AM 35.9206 -104.6533 56° Northeast 480 552 35,000  Level Albuquerque Center
Sun 11:35:44 AM 35.9942 -104.5164 56° Northeast 476 548 35,000  Level Albuquerque Center
Sun 11:36:46 AM 36.0675 -104.3797 56° Northeast 472 543 35,000  Level Albuquerque Center
Sun 11:37:47 AM 36.1414 -104.2403 57° Northeast 476 548 35,000  Level Albuquerque Center
Sun 11:38:49 AM 36.2153 -104.1025 56° Northeast 476 548 35,000  Level Albuquerque Center
Sun 11:39:51 AM 36.3022 -103.9414 56° Northeast 477 549 35,000  Level Albuquerque Center
Sun 11:40:53 AM 36.3756 -103.8014 57° Northeast 477 549 35,000  Level Albuquerque Center
Sun 11:41:55 AM 36.4492 -103.6614 57° Northeast 479 551 35,000  Level Albuquerque Center
Sun 11:42:57 AM 36.5225 -103.5211 57° Northeast 479 551 35,000  Level Albuquerque Center
Sun 11:43:59 AM 36.5944 -103.3803 58° Northeast 478 550 35,000  Level Albuquerque Center
Sun 11:45:01 AM 36.6678 -103.2406 57° Northeast 476 548 35,000  Level Albuquerque Center
Sun 11:46:03 AM 36.7481 -103.0844 57° Northeast 480 552 35,000  Level Albuquerque Center
Sun 11:47:05 AM 36.8158 -102.9500 58° Northeast 480 552 35,000  Level Albuquerque Center
Sun 11:48:06 AM 36.8975 -102.7936 57° Northeast 482 555 35,000  Level Albuquerque Center
Sun 11:49:08 AM 36.9675 -102.6575 57° Northeast 485 558 35,000  Level Albuquerque Center
Sun 11:50:10 AM 37.0394 -102.5153 58° Northeast 481 554 35,000  Level Albuquerque Center
Sun 11:51:12 AM 37.1192 -102.3564 58° Northeast 482 555 35,000  Level Albuquerque Center
Sun 11:52:14 AM 37.1833 -102.2278 58° Northeast 482 555 35,000  Level Albuquerque Center
Sun 11:53:15 AM 37.2672 -102.0625 57° Northeast 480 552 35,000  Level Albuquerque Center
Sun 11:54:17 AM 37.3344 -101.9264 58° Northeast 480 552 35,000  Level Albuquerque Center
Sun 11:55:07 AM 37.3886 -101.8117 59° Northeast 479 551 35,000  Level Kansas City Center
Sun 11:56:10 AM 37.4558 -101.6742 58° Northeast 481 554 35,000  Level Kansas City Center
Sun 11:57:10 AM 37.5347 -101.5150 58° Northeast 480 552 35,000  Level Kansas City Center
Sun 11:58:12 AM 37.6025 -101.3783 58° Northeast 479 551 35,000  Level Kansas City Center
Sun 11:59:15 AM 37.6811 -101.2167 58° Northeast 481 554 35,000  Level Kansas City Center
Sun 12:00:15 PM 37.7544 -101.0656 58° Northeast 482 555 35,000  Level Kansas City Center
Sun 12:01:17 PM 37.8169 -100.9361 59° Northeast 482 555 35,000  Level Kansas City Center
Sun 12:02:21 PM 37.8967 -100.7714 58° Northeast 484 557 35,000  Level Kansas City Center
Sun 12:03:21 PM 37.9728 -100.6417 53° Northeast 477 549 35,000  Level Kansas City Center
Sun 12:04:25 PM 38.0669 -100.4969 50° Northeast 474 545 35,000  Level Kansas City Center
Sun 12:05:27 PM 38.1464 -100.3739 51° Northeast 472 543 35,000  Level Kansas City Center
Sun 12:06:27 PM 38.2397 -100.2297 50° Northeast 471 542 35,000  Level Kansas City Center
Sun 12:07:31 PM 38.3186 -100.1067 51° Northeast 470 541 35,000  Level Kansas City Center
Sun 12:08:31 PM 38.3986 -99.9844 50° Northeast 470 541 35,000  Level Kansas City Center
Sun 12:09:34 PM 38.4908 -99.8397 51° Northeast 470 541 35,000  Level Kansas City Center
Sun 12:10:35 PM 38.5697 -99.7142 51° Northeast 472 543 35,000  Level Kansas City Center
Sun 12:11:36 PM 38.6603 -99.5708 51° Northeast 466 536 35,000  Level Kansas City Center
Sun 12:12:40 PM 38.7453 -99.4375 51° Northeast 470 541 35,000  Level Kansas City Center
Sun 12:13:40 PM 38.8283 -99.3069 51° Northeast 471 542 35,000  Level Kansas City Center
Sun 12:14:44 PM 38.9031 -99.1597 57° Northeast 497 572 35,000  Level Kansas City Center
Sun 12:15:45 PM 38.9681 -99.0142 60° Northeast 475 547 35,000  Level Kansas City Center
Sun 12:16:46 PM 39.0358 -98.8658 59° Northeast 479 551 35,000  Level Kansas City Center
Sun 12:17:50 PM 39.1033 -98.7181 59° Northeast 479 551 35,000  Level Kansas City Center
Sun 12:18:51 PM 39.1722 -98.5681 59° Northeast 482 555 35,000  Level Kansas City Center
Sun 12:19:51 PM 39.2503 -98.3925 60° Northeast 481 554 35,000  Level Kansas City Center
Sun 12:20:55 PM 39.3183 -98.2442 59° Northeast 481 554 35,000  Level Kansas City Center
Sun 12:21:57 PM 39.3828 -98.0956 61° Northeast 479 551 35,000  Level Kansas City Center
Sun 12:22:58 PM 39.4597 -97.9272 59° Northeast 482 555 35,000  Level Kansas City Center
Sun 12:24:02 PM 39.5192 -97.7917 60° Northeast 487 560 35,000  Level Kansas City Center
Sun 12:25:02 PM 39.5981 -97.6100 61° Northeast 485 558 35,000  Level Kansas City Center
Sun 12:25:59 PM 39.6631 -97.4625 60° Northeast 486 559 35,000  Level Minneapolis Center
Sun 12:27:01 PM 39.7297 -97.3097 60° Northeast 486 559 35,000  Level Minneapolis Center
Sun 12:28:02 PM 39.7956 -97.1564 61° Northeast 487 560 35,000  Level Minneapolis Center
Sun 12:29:04 PM 39.8619 -97.0036 60° Northeast 487 560 35,000  Level Minneapolis Center
Sun 12:30:06 PM 39.9278 -96.8492 61° Northeast 488 562 35,000  Level Minneapolis Center
Sun 12:31:07 PM 39.9931 -96.6950 61° Northeast 487 560 35,000  Level Minneapolis Center
Sun 12:32:09 PM 40.0597 -96.5414 60° Northeast 488 562 35,000  Level Minneapolis Center
Sun 12:33:11 PM 40.1378 -96.3544 61° Northeast 490 564 35,000  Level Minneapolis Center
Sun 12:34:13 PM 40.2033 -96.1986 61° Northeast 490 564 35,000  Level Minneapolis Center
Sun 12:35:14 PM 40.2769 -96.0508 57° Northeast 488 562 35,000  Level Minneapolis Center
Sun 12:36:16 PM 40.3508 -95.9028 57° Northeast 488 562 35,000  Level Minneapolis Center
Sun 12:37:18 PM 40.4247 -95.7525 57° Northeast 491 565 35,000  Level Minneapolis Center
Sun 12:38:19 PM 40.4994 -95.6061 56° Northeast 488 562 35,000  Level Minneapolis Center
Sun 12:39:21 PM 40.5722 -95.4572 57° Northeast 486 559 35,000  Level Minneapolis Center
Sun 12:40:23 PM 40.6606 -95.2794 57° Northeast 486 559 35,000  Level Minneapolis Center
Sun 12:41:25 PM 40.7328 -95.1308 57° Northeast 484 557 35,000  Level Minneapolis Center
Sun 12:42:26 PM 40.8050 -94.9822 57° Northeast 484 557 35,000  Level Minneapolis Center
Sun 12:43:28 PM 40.8772 -94.8331 57° Northeast 484 557 35,000  Level Minneapolis Center
Sun 12:44:30 PM 40.9492 -94.6836 57° Northeast 485 558 35,000  Level Minneapolis Center
Sun 12:45:32 PM 41.0314 -94.5103 58° Northeast 484 557 35,000  Level Minneapolis Center
Sun 12:46:34 PM 41.1025 -94.3589 58° Northeast 485 558 35,000  Level Minneapolis Center
Sun 12:47:35 PM 41.1739 -94.2094 58° Northeast 484 557 35,000  Level Minneapolis Center
Sun 12:48:37 PM 41.2456 -94.0578 58° Northeast 485 558 35,000  Level Minneapolis Center
Sun 12:49:39 PM 41.3167 -93.9061 58° Northeast 486 559 35,000  Level Minneapolis Center
Sun 12:50:41 PM 41.3875 -93.7539 58° Northeast 487 560 35,000  Level Minneapolis Center
Sun 12:51:43 PM 41.4667 -93.5678 60° Northeast 486 559 35,000  Level Minneapolis Center
Sun 12:52:44 PM 41.5225 -93.4028 66° East 488 562 35,000  Level Minneapolis Center
Sun 12:53:46 PM 41.5783 -93.2394 65° Northeast 487 560 35,000  Level Minneapolis Center
Sun 12:54:48 PM 41.6336 -93.0764 66° East 486 559 35,000  Level Minneapolis Center
Sun 12:55:50 PM 41.6889 -92.9119 66° East 487 560 35,000  Level Minneapolis Center
Sun 12:56:51 PM 41.7483 -92.7383 65° Northeast 487 560 35,000  Level Minneapolis Center
Sun 12:57:36 PM 41.7914 -92.6047 67° East 486 559 35,000  Level Chicago Center
Sun 12:58:37 PM 41.8464 -92.4397 66° East 489 563 35,000  Level Chicago Center
Sun 12:59:39 PM 41.8994 -92.2764 66° East 485 558 35,000  Level Chicago Center
Sun 01:00:41 PM 41.9542 -92.1125 66° East 486 559 35,000  Level Chicago Center
Sun 01:01:43 PM 42.0183 -91.9139 66° East 490 564 35,000 -484 Level Chicago Center
Sun 01:02:45 PM 42.0728 -91.7506 66° East 486 559 34,000 -919 Descending Chicago Center
Sun 01:03:47 PM 42.1261 -91.5842 67° East 489 563 33,100 -919 Descending Chicago Center
Sun 01:04:49 PM 42.1781 -91.4192 67° East 485 558 32,100 -968 Descending Chicago Center
Sun 01:05:51 PM 42.2300 -91.2572 67° East 480 552 31,100 -532 Descending Chicago Center
Sun 01:06:53 PM 42.2911 -91.0625 67° East 478 550 31,000 -97 Descending Chicago Center
Sun 01:07:55 PM 42.3400 -90.9058 67° East 466 536 30,900 -581 Descending Chicago Center
Sun 01:08:57 PM 42.3908 -90.7394 67° East 472 543 29,800 -1,016 Descending Chicago Center
Sun 01:09:59 PM 42.4150 -90.5717 79° East 466 536 28,800 -1,016 Descending Chicago Center
Sun 01:11:01 PM 42.4358 -90.3639 82° East 470 541 27,700 -968 Descending Chicago Center
Sun 01:12:03 PM 42.4533 -90.1928 82° East 465 535 26,800 -919 Descending Chicago Center
Sun 01:13:05 PM 42.4717 -90.0214 82° East 464 534 25,800 -968 Descending Chicago Center
Sun 01:14:07 PM 42.4867 -89.8489 83° East 453 521 24,800 -1,016 Descending Chicago Center
Sun 01:15:09 PM 42.5033 -89.6861 82° East 440 506 23,700 -1,113 Descending Chicago Center
Sun 01:16:11 PM 42.5211 -89.5028 82° East 423 487 22,500 -1,065 Descending Chicago Center
Sun 01:17:13 PM 42.5350 -89.3481 83° East 415 478 21,500 -1,500 Descending Chicago Center
Sun 01:18:15 PM 42.5486 -89.1983 83° East 403 464 19,400 -2,032 Descending Chicago Center
Sun 01:19:17 PM 42.5672 -89.0522 80° East 396 456 17,300 -1,984 Descending Chicago Center
Sun 01:20:19 PM 42.5928 -88.9114 76° East 385 443 15,300 -1,887 Descending Chicago Center
Sun 01:21:21 PM 42.6219 -88.7581 75° East 366 421 13,400 -1,742 Descending Chicago Center
Sun 01:22:23 PM 42.6453 -88.6308 76° East 353 406 11,700 -1,548 Descending Chicago Center
Sun 01:23:25 PM 42.6675 -88.5072 76° East 343 395 10,200 -1,306 Descending Chicago Center
Sun 01:24:27 PM 42.6892 -88.3867 76° East 333 383 9,000 -1,065 Descending Chicago Center
Sun 01:25:29 PM 42.7097 -88.2728 76° East 315 362 8,000 -677 Descending Chicago Center
Sun 01:26:31 PM 42.7083 -88.1422 91° East 296 341 7,600 -823 Descending Chicago Center
Sun 01:27:33 PM 42.7086 -88.0347 90° East 289 333 6,300 -1,152 Descending Chicago Center
Sun 01:28:36 PM 42.7167 -87.9300 84° East 296 341 5,200 -1,104 Descending Chicago Center
Sun 01:29:38 PM 42.7753 -87.9125 12° North 231 266 4,000 -1,210 Descending Chicago Center
Sun 01:30:40 PM 42.8336 -87.9128 360° North 218 251 2,700 -1,113 Descending Chicago Center
Sun 01:31:42 PM 42.8864 -87.9039 North 182 209 1,700 -903 Descending Chicago Center
Sun 01:32:33 PM 42.9167 -87.9000 North 137 158 1,000 -824 Descending KMKE
Sun 01:34:00 PM 42.9333 -87.8833 North  Level FlightAware Approximate
Sun 01:41:00 PM 42.9469 -87.8971 North  Level Estimated

Login

Don't have an account? Register now (free) for customized features, flight alerts, and more!